Time;durP1;ratioP1;P1;durP2;ratioP2;P2;SDS_P1;SDS_P2;PMS_P1;PMS_P2;Temp;Humidity;BMP_temperature;BMP_pressure;BME280_temperature;BME280_humidity;BME280_pressure;Samples;Min_cycle;Max_cycle;Signal;HPM_P1;HPM_P2
2021/09/04 00:00:08;;;;;;;11.57;3.70;;;;;;;15.76;100.00;101274.41;4978509;28;20548;-74
2021/09/04 00:02:36;;;;;;;7.07;3.70;;;;;;;15.77;100.00;101275.22;4995273;28;20249;-75
2021/09/04 00:05:07;;;;;;;7.83;3.57;;;;;;;15.86;100.00;101272.38;5012429;28;20556;-75
2021/09/04 00:07:33;;;;;;;6.77;3.37;;;;;;;15.92;100.00;101273.94;5012350;28;20213;-73
2021/09/04 00:09:59;;;;;;;6.87;3.33;;;;;;;15.87;100.00;101270.44;4994131;28;20216;-74
2021/09/04 00:12:28;;;;;;;8.45;3.70;;;;;;;15.81;100.00;101266.94;5008127;28;20213;-74
2021/09/04 00:14:54;;;;;;;7.73;3.90;;;;;;;15.93;100.00;101270.13;5012183;28;20173;-75
2021/09/04 00:17:19;;;;;;;7.65;3.92;;;;;;;15.98;100.00;101269.22;4994905;28;20278;-74
2021/09/04 00:19:47;;;;;;;7.37;4.10;;;;;;;15.90;100.00;101261.66;5013057;28;20231;-74
2021/09/04 00:22:18;;;;;;;8.70;4.27;;;;;;;15.83;100.00;101255.72;5010501;28;20221;-75
2021/09/04 00:24:43;;;;;;;8.17;3.70;;;;;;;15.79;100.00;101262.88;5012556;28;20200;-74
2021/09/04 00:27:12;;;;;;;8.13;3.70;;;;;;;15.78;100.00;101251.09;5010911;28;20224;-74
2021/09/04 00:29:40;;;;;;;7.87;4.20;;;;;;;15.53;100.00;101263.44;5011555;28;20209;-76
2021/09/04 00:32:06;;;;;;;6.67;3.80;;;;;;;15.62;100.00;101258.94;5027234;28;20308;-73
2021/09/04 00:34:31;;;;;;;8.10;3.80;;;;;;;15.63;100.00;101258.66;4991031;28;20643;-73
2021/09/04 00:36:57;;;;;;;6.93;3.88;;;;;;;15.70;100.00;101258.34;4990515;28;20239;-73
2021/09/04 00:39:23;;;;;;;8.38;4.00;;;;;;;15.58;100.00;101255.16;5017804;28;20300;-73
2021/09/04 00:41:51;;;;;;;8.47;4.00;;;;;;;15.54;100.00;101265.06;4993318;28;20597;-74
2021/09/04 00:44:23;;;;;;;7.05;3.95;;;;;;;15.72;100.00;101261.59;4994434;28;20245;-74
2021/09/04 00:46:48;;;;;;;6.43;3.70;;;;;;;15.69;100.00;101262.16;4994235;28;20217;-73
2021/09/04 00:49:14;;;;;;;6.53;4.10;;;;;;;15.60;100.00;101259.22;4984425;28;20205;-73
2021/09/04 00:51:39;;;;;;;6.80;3.43;;;;;;;15.52;100.00;101254.41;4976288;28;20225;-74
2021/09/04 00:54:06;;;;;;;8.83;4.10;;;;;;;15.49;100.00;101254.16;4978280;28;20663;-73
2021/09/04 00:56:31;;;;;;;8.27;3.93;;;;;;;15.65;100.00;101255.66;5009934;28;20252;-73
2021/09/04 00:59:01;;;;;;;5.60;3.30;;;;;;;15.64;100.00;101254.84;4978456;28;20197;-72
2021/09/04 01:01:29;;;;;;;8.02;3.38;;;;;;;15.46;100.00;101249.28;4987112;28;20488;-73
2021/09/04 01:03:58;;;;;;;8.88;3.20;;;;;;;15.43;100.00;101253.41;5021228;28;20256;-73
2021/09/04 01:06:24;;;;;;;7.72;3.35;;;;;;;15.30;100.00;101256.00;5019068;28;20217;-74
2021/09/04 01:08:51;;;;;;;5.73;3.07;;;;;;;15.14;100.00;101254.50;5011814;28;20264;-74
2021/09/04 01:11:17;;;;;;;5.37;2.97;;;;;;;15.35;100.00;101255.13;4984530;28;20220;-73
2021/09/04 01:13:43;;;;;;;5.83;3.00;;;;;;;15.48;100.00;101263.50;5013028;28;20236;-73
2021/09/04 01:16:11;;;;;;;6.80;3.20;;;;;;;15.25;100.00;101255.22;4997137;28;20232;-73
2021/09/04 01:18:39;;;;;;;8.93;3.47;;;;;;;15.34;100.00;101257.06;4997381;28;20208;-73
2021/09/04 01:21:05;;;;;;;6.40;3.10;;;;;;;15.38;100.00;101255.38;4997708;28;20224;-73
2021/09/04 01:23:35;;;;;;;5.30;3.00;;;;;;;15.46;100.00;101252.81;5014813;28;20574;-73
2021/09/04 01:26:05;;;;;;;6.67;3.00;;;;;;;15.51;100.00;101254.69;5013951;28;20217;-73
2021/09/04 01:28:32;;;;;;;5.20;2.70;;;;;;;15.34;100.00;101253.50;5013414;28;20710;-74
2021/09/04 01:30:58;;;;;;;8.47;2.70;;;;;;;15.18;100.00;101250.13;4979580;28;20225;-77
2021/09/04 01:33:28;;;;;;;6.50;2.40;;;;;;;14.98;100.00;101259.53;4980088;28;20185;-78
2021/09/04 01:35:56;;;;;;;8.53;2.67;;;;;;;14.97;100.00;101241.50;5010835;28;20300;-73
2021/09/04 01:38:24;;;;;;;6.97;2.50;;;;;;;15.05;100.00;101238.97;5029401;28;20216;-73
2021/09/04 01:40:50;;;;;;;7.50;2.67;;;;;;;14.96;100.00;101245.34;4996766;28;20217;-74
2021/09/04 01:43:18;;;;;;;6.35;2.63;;;;;;;15.20;100.00;101247.91;4997603;28;20558;-73
2021/09/04 01:45:44;;;;;;;6.50;2.85;;;;;;;15.23;100.00;101247.31;4997360;28;20209;-74
2021/09/04 01:48:11;;;;;;;7.33;3.63;;;;;;;15.21;100.00;101254.19;4996936;28;20259;-74
2021/09/04 01:50:37;;;;;;;9.23;3.10;;;;;;;15.41;100.00;101257.53;5004523;28;20243;-74
2021/09/04 01:53:03;;;;;;;9.00;2.70;;;;;;;15.25;100.00;101256.03;5014400;28;20189;-78
2021/09/04 01:55:31;;;;;;;5.63;2.70;;;;;;;15.33;100.00;101255.44;4981753;28;20304;-74
2021/09/04 01:57:58;;;;;;;8.13;3.07;;;;;;;15.16;100.00;101252.31;4996861;28;20201;-75
2021/09/04 02:00:26;;;;;;;6.50;3.00;;;;;;;15.14;100.00;101251.75;4994153;28;20189;-76
2021/09/04 02:02:56;;;;;;;6.93;3.30;;;;;;;15.09;100.00;101251.78;4995809;28;20193;-75
2021/09/04 02:05:27;;;;;;;5.23;2.90;;;;;;;15.08;100.00;101250.16;4986448;28;20185;-74
2021/09/04 02:07:55;;;;;;;6.20;3.20;;;;;;;14.93;100.00;101251.41;4997661;28;20201;-74
2021/09/04 02:10:22;;;;;;;7.05;3.38;;;;;;;14.99;100.00;101235.44;5000252;28;20670;-75
2021/09/04 02:12:48;;;;;;;8.53;2.93;;;;;;;15.31;100.00;101233.00;4988917;28;20189;-74
2021/09/04 02:15:17;;;;;;;4.95;3.47;;;;;;;15.32;100.00;101234.63;4989704;28;20235;-74
2021/09/04 02:17:44;;;;;;;4.90;2.83;;;;;;;15.38;100.00;101249.09;4994465;28;20267;-75
2021/09/04 02:20:11;;;;;;;6.30;3.33;;;;;;;15.21;100.00;101237.75;4991008;28;20189;-75
2021/09/04 02:22:38;;;;;;;5.33;3.63;;;;;;;15.25;100.00;101244.28;4998424;28;20650;-74
2021/09/04 02:25:05;;;;;;;7.55;2.83;;;;;;;15.36;100.00;101241.16;5029352;28;20189;-74
2021/09/04 02:27:32;;;;;;;7.70;3.00;;;;;;;15.46;100.00;101241.06;5012871;28;20220;-74
2021/09/04 02:30:00;;;;;;;5.65;3.03;;;;;;;15.40;100.00;101247.69;5012625;28;20205;-75
2021/09/04 02:32:29;;;;;;;4.90;3.15;;;;;;;15.32;100.00;101245.59;5013632;28;20232;-74
2021/09/04 02:34:55;;;;;;;4.60;3.10;;;;;;;15.40;100.00;101250.41;5014231;28;20276;-74
2021/09/04 02:37:26;;;;;;;10.25;3.60;;;;;;;15.25;100.00;101245.09;5012148;28;20440;-74
2021/09/04 02:39:51;;;;;;;5.97;3.00;;;;;;;15.22;100.00;101247.59;5017093;28;20181;-74
2021/09/04 02:42:23;;;;;;;7.70;3.17;;;;;;;15.09;100.00;101246.31;5011981;28;20300;-74
2021/09/04 02:44:49;;;;;;;7.10;2.83;;;;;;;15.21;100.00;101244.03;5013715;28;20669;-74
2021/09/04 02:47:19;;;;;;;4.72;2.90;;;;;;;15.15;100.00;101250.69;4994363;28;20216;-74
2021/09/04 02:49:45;;;;;;;5.77;2.50;;;;;;;15.28;100.00;101252.75;5012157;28;20221;-73
2021/09/04 02:52:11;;;;;;;6.93;2.50;;;;;;;15.12;100.00;101237.53;5011614;28;20221;-73
2021/09/04 02:54:37;;;;;;;6.20;2.80;;;;;;;15.30;100.00;101249.72;5013300;28;20225;-73
2021/09/04 02:57:04;;;;;;;4.63;2.43;;;;;;;15.29;100.00;101257.13;5012584;28;20695;-73
2021/09/04 02:59:32;;;;;;;4.63;2.50;;;;;;;15.26;100.00;101254.94;5028014;28;20201;-73
2021/09/04 03:02:07;;;;;;;4.70;2.30;;;;;;;15.32;100.00;101256.53;5028147;28;20220;-73
2021/09/04 03:04:33;;;;;;;8.07;2.23;;;;;;;15.08;100.00;101247.41;4997447;28;20219;-75
2021/09/04 03:07:01;;;;;;;5.07;2.10;;;;;;;15.13;100.00;101246.56;5012550;28;20217;-73
2021/09/04 03:09:30;;;;;;;4.47;1.93;;;;;;;15.18;100.00;101244.63;5009394;28;20271;-75
2021/09/04 03:11:56;;;;;;;4.10;1.90;;;;;;;15.34;100.00;101243.38;5011377;28;20228;-75
2021/09/04 03:14:22;;;;;;;5.43;2.05;;;;;;;15.19;100.00;101250.91;4995813;28;20181;-75
2021/09/04 03:16:52;;;;;;;6.13;1.97;;;;;;;14.85;100.00;101265.66;4979059;28;20217;-75
2021/09/04 03:19:23;;;;;;;7.10;2.57;;;;;;;14.88;100.00;101265.13;4996199;28;20312;-75
2021/09/04 03:21:52;;;;;;;6.13;2.43;;;;;;;14.82;100.00;101263.53;4981018;28;20240;-73
2021/09/04 03:24:19;;;;;;;4.30;2.30;;;;;;;15.17;100.00;101253.94;4980361;28;20188;-74
2021/09/04 03:26:48;;;;;;;6.23;2.23;;;;;;;15.10;100.00;101264.38;5011553;28;20270;-73
2021/09/04 03:29:14;;;;;;;5.13;2.08;;;;;;;15.36;100.00;101245.81;5011384;28;20633;-73
2021/09/04 03:31:42;;;;;;;5.53;1.80;;;;;;;15.43;100.00;101247.13;5011911;28;20295;-74
2021/09/04 03:34:07;;;;;;;4.67;1.70;;;;;;;15.23;100.00;101249.22;5028706;28;20655;-74
2021/09/04 03:36:36;;;;;;;6.53;2.10;;;;;;;15.25;100.00;101247.81;4979098;28;20267;-74
2021/09/04 03:39:04;;;;;;;4.33;1.70;;;;;;;15.30;100.00;101247.78;5013352;28;20219;-73
2021/09/04 03:41:31;;;;;;;3.83;1.90;;;;;;;15.22;100.00;101240.22;5011626;28;20224;-74
2021/09/04 03:44:00;;;;;;;4.33;2.17;;;;;;;14.96;100.00;101245.34;4996639;28;20181;-72
2021/09/04 03:46:28;;;;;;;6.23;2.10;;;;;;;15.01;100.00;101244.19;4994853;28;20243;-72
2021/09/04 03:48:59;;;;;;;5.93;2.10;;;;;;;14.95;100.00;101238.25;4976238;28;20875;-72
2021/09/04 03:51:28;;;;;;;6.87;2.10;;;;;;;14.94;100.00;101244.81;4975744;28;20232;-74
2021/09/04 03:53:56;;;;;;;8.17;1.90;;;;;;;15.09;100.00;101240.00;4978303;28;20189;-72
2021/09/04 03:56:27;;;;;;;4.60;1.50;;;;;;;15.20;100.00;101245.16;5010363;28;20220;-72
2021/09/04 03:58:53;;;;;;;2.83;1.70;;;;;;;15.22;100.00;101245.69;5010620;28;20260;-73
2021/09/04 04:01:20;;;;;;;4.40;1.88;;;;;;;15.09;100.00;101245.47;5026658;28;20228;-73
2021/09/04 04:03:46;;;;;;;7.07;2.22;;;;;;;15.17;100.00;101248.47;4994678;28;20189;-72
2021/09/04 04:06:15;;;;;;;4.97;2.00;;;;;;;15.30;100.00;101253.28;5010391;28;20706;-72
2021/09/04 04:08:41;;;;;;;3.80;1.92;;;;;;;15.27;100.00;101253.03;4989856;28;20697;-73
2021/09/04 04:11:09;;;;;;;6.57;1.92;;;;;;;15.02;100.00;101250.50;5012964;28;20240;-73
2021/09/04 04:13:38;;;;;;;4.85;2.30;;;;;;;15.39;100.00;101250.72;5010883;28;20181;-73
2021/09/04 04:16:04;;;;;;;5.03;2.97;;;;;;;15.48;100.00;101255.28;4978369;28;20304;-73
2021/09/04 04:18:33;;;;;;;5.20;1.90;;;;;;;15.39;100.00;101251.53;4991561;28;20205;-72
2021/09/04 04:21:03;;;;;;;6.40;2.10;;;;;;;15.34;100.00;101253.50;4977989;28;20216;-73
2021/09/04 04:23:31;;;;;;;4.40;2.07;;;;;;;15.27;100.00;101256.56;5012066;28;20192;-72
2021/09/04 04:25:58;;;;;;;3.17;1.93;;;;;;;15.36;100.00;101240.34;4978807;28;20217;-71
2021/09/04 04:28:24;;;;;;;4.55;1.90;;;;;;;15.61;100.00;101243.63;5026783;28;20216;-73
2021/09/04 04:30:50;;;;;;;4.33;2.00;;;;;;;15.54;100.00;101237.69;5010351;28;20217;-72
2021/09/04 04:33:21;;;;;;;4.40;2.00;;;;;;;15.48;100.00;101238.84;5027251;28;20211;-73
2021/09/04 04:35:47;;;;;;;5.45;1.65;;;;;;;15.22;100.00;101240.22;4997413;28;20255;-72
2021/09/04 04:38:13;;;;;;;7.80;1.60;;;;;;;15.41;100.00;101249.31;5005330;28;20212;-73
2021/09/04 04:40:40;;;;;;;4.30;1.90;;;;;;;15.55;100.00;101251.09;5012557;28;20225;-72
2021/09/04 04:43:07;;;;;;;5.03;1.97;;;;;;;15.60;100.00;101247.47;5011385;28;20184;-72
2021/09/04 04:45:33;;;;;;;4.80;2.00;;;;;;;15.70;100.00;101241.91;5025309;28;20289;-74
2021/09/04 04:48:03;;;;;;;7.27;2.37;;;;;;;15.62;100.00;101240.63;5025856;28;20205;-73
2021/09/04 04:50:32;;;;;;;6.60;2.33;;;;;;;15.64;100.00;101237.56;4982404;28;20240;-74
2021/09/04 04:53:01;;;;;;;4.32;1.92;;;;;;;15.57;100.00;101237.94;4999882;28;20216;-72
2021/09/04 04:55:30;;;;;;;3.85;1.80;;;;;;;15.65;100.00;101240.00;5016185;28;20338;-73
2021/09/04 04:57:59;;;;;;;3.72;1.90;;;;;;;15.41;100.00;101250.13;4999545;28;20216;-73
2021/09/04 05:00:31;;;;;;;3.47;1.83;;;;;;;15.40;100.00;101243.03;4999708;28;20220;-73
2021/09/04 05:02:58;;;;;;;4.43;1.98;;;;;;;15.56;100.00;101240.94;5026158;28;20220;-72
2021/09/04 05:05:24;;;;;;;4.15;1.75;;;;;;;15.51;100.00;101238.25;4998427;28;20185;-73
2021/09/04 05:07:52;;;;;;;4.17;2.10;;;;;;;15.81;100.00;101236.81;4997014;28;20215;-74
2021/09/04 05:10:18;;;;;;;6.75;2.50;;;;;;;15.88;100.00;101240.03;4996886;28;20299;-73
2021/09/04 05:12:49;;;;;;;4.65;2.08;;;;;;;15.88;100.00;101239.22;4978016;28;20285;-74
2021/09/04 05:15:16;;;;;;;5.93;2.10;;;;;;;15.88;100.00;101240.03;5029870;28;20263;-73
2021/09/04 05:17:45;;;;;;;4.05;1.98;;;;;;;15.71;100.00;101238.03;5000004;28;20188;-74
2021/09/04 05:20:13;;;;;;;5.28;2.20;;;;;;;15.72;100.00;101239.69;5015485;28;20631;-74
2021/09/04 05:22:46;;;;;;;5.10;2.38;;;;;;;15.79;100.00;101233.56;5031662;28;20575;-73
2021/09/04 05:25:15;;;;;;;5.07;2.13;;;;;;;15.68;100.00;101235.91;5030493;28;20250;-74
2021/09/04 05:27:41;;;;;;;4.28;2.00;;;;;;;15.78;100.00;101240.13;5015158;28;20181;-73
2021/09/04 05:30:07;;;;;;;2.70;1.70;;;;;;;15.72;100.00;101245.97;5030611;28;20220;-74
2021/09/04 05:32:33;;;;;;;4.30;2.40;;;;;;;15.54;100.00;101237.69;5015038;28;20180;-73
2021/09/04 05:35:03;;;;;;;6.30;2.20;;;;;;;15.72;100.00;101239.69;4989204;28;20191;-75
2021/09/04 05:37:29;;;;;;;5.28;2.00;;;;;;;15.75;100.00;101239.91;5009893;28;20233;-74
2021/09/04 05:39:56;;;;;;;6.07;1.88;;;;;;;15.70;100.00;101244.63;5014249;28;20723;-74
2021/09/04 05:42:25;;;;;;;6.93;2.00;;;;;;;15.97;100.00;101238.28;4988743;28;20224;-73
2021/09/04 05:44:51;;;;;;;3.72;2.05;;;;;;;16.04;100.00;101240.63;5006018;28;20283;-73
2021/09/04 05:47:18;;;;;;;3.30;1.90;;;;;;;16.02;100.00;101238.19;5016675;28;20220;-73
2021/09/04 05:49:47;;;;;;;7.35;2.47;;;;;;;16.01;100.00;101239.31;5001371;28;20209;-74
2021/09/04 05:52:19;;;;;;;7.88;2.00;;;;;;;16.11;100.00;101233.69;5014729;28;20231;-74
2021/09/04 05:54:47;;;;;;;3.57;1.77;;;;;;;16.12;100.00;101240.81;5011327;28;20197;-74
2021/09/04 05:57:13;;;;;;;4.78;1.90;;;;;;;16.17;100.00;101244.31;4995303;28;20235;-74
2021/09/04 05:59:44;;;;;;;4.53;2.00;;;;;;;16.22;100.00;101240.69;5028145;28;20297;-74
2021/09/04 06:02:10;;;;;;;5.05;2.30;;;;;;;16.31;100.00;101227.97;4995741;28;20226;-75
2021/09/04 06:04:37;;;;;;;3.38;2.20;;;;;;;16.32;100.00;101232.34;5006873;28;20185;-73
2021/09/04 06:07:03;;;;;;;5.40;2.45;;;;;;;16.48;100.00;101236.50;5014074;28;20678;-73
2021/09/04 06:09:29;;;;;;;4.97;2.13;;;;;;;16.55;100.00;101236.94;5034876;28;20223;-75
2021/09/04 06:11:55;;;;;;;3.90;1.85;;;;;;;16.48;100.00;101233.75;5011908;28;20216;-74
2021/09/04 06:14:20;;;;;;;7.53;2.45;;;;;;;16.40;100.00;101231.69;5030285;28;20181;-73
2021/09/04 06:16:46;;;;;;;5.10;1.95;;;;;;;16.54;100.00;101241.63;4998044;28;20232;-76
2021/09/04 06:19:17;;;;;;;6.70;2.20;;;;;;;16.49;100.00;101230.72;4967270;28;20237;-73
2021/09/04 06:21:43;;;;;;;4.70;2.10;;;;;;;16.50;100.00;101231.53;5014100;28;20224;-72
2021/09/04 06:24:10;;;;;;;5.15;2.00;;;;;;;16.48;100.00;101240.03;4998254;28;20179;-73
2021/09/04 06:26:38;;;;;;;3.45;1.95;;;;;;;16.45;100.00;101239.84;4997984;28;20221;-73
2021/09/04 06:29:08;;;;;;;3.78;2.03;;;;;;;16.40;100.00;101237.16;5001147;28;20209;-75
2021/09/04 06:31:35;;;;;;;3.63;1.88;;;;;;;16.54;100.00;101244.38;5013872;28;20231;-74
2021/09/04 06:34:00;;;;;;;5.47;2.20;;;;;;;16.70;100.00;101238.34;5014119;28;20185;-75
2021/09/04 06:36:26;;;;;;;5.20;1.98;;;;;;;16.92;100.00;101246.75;5040920;28;20236;-74
2021/09/04 06:38:54;;;;;;;3.88;2.00;;;;;;;16.94;100.00;101245.34;5015323;28;20205;-73
2021/09/04 06:41:20;;;;;;;5.20;2.00;;;;;;;16.79;100.00;101239.28;5031618;28;20221;-74
2021/09/04 06:43:47;;;;;;;4.75;2.10;;;;;;;16.55;100.00;101245.16;5009419;28;20192;-74
2021/09/04 06:46:16;;;;;;;6.70;2.17;;;;;;;16.98;100.00;101246.38;4997418;28;20574;-74
2021/09/04 06:48:41;;;;;;;4.63;1.80;;;;;;;16.95;100.00;101251.66;4980810;28;20307;-75
2021/09/04 06:51:07;;;;;;;5.88;1.83;;;;;;;16.58;100.00;101250.88;5009963;28;20236;-73
2021/09/04 06:53:32;;;;;;;4.47;2.13;;;;;;;16.36;100.00;101249.84;5026526;28;20193;-75
2021/09/04 06:55:58;;;;;;;4.93;1.98;;;;;;;16.20;100.00;101242.91;5009733;28;20236;-75
2021/09/04 06:58:24;;;;;;;3.25;1.70;;;;;;;16.30;100.00;101253.75;5022554;28;20208;-75
2021/09/04 07:00:57;;;;;;;4.32;2.10;;;;;;;16.64;100.00;101253.22;5000270;28;20213;-75
2021/09/04 07:03:23;;;;;;;5.55;2.13;;;;;;;16.83;100.00;101248.56;4996504;28;20208;-74
2021/09/04 07:05:49;;;;;;;3.83;1.98;;;;;;;16.67;100.00;101255.41;4996435;28;20220;-75
2021/09/04 07:08:15;;;;;;;4.85;2.05;;;;;;;16.68;100.00;101259.78;5013290;28;20225;-75
2021/09/04 07:10:43;;;;;;;5.35;2.10;;;;;;;17.15;100.00;101254.06;4995018;28;20231;-74
2021/09/04 07:13:10;;;;;;;4.22;2.10;;;;;;;17.23;100.00;101243.22;4984597;28;20243;-74
2021/09/04 07:15:40;;;;;;;5.20;2.00;;;;;;;17.20;100.00;101254.03;5037668;28;20599;-75
2021/09/04 07:18:08;;;;;;;5.07;2.15;;;;;;;17.38;100.00;101254.78;4966400;28;20248;-75
2021/09/04 07:20:36;;;;;;;4.68;2.20;;;;;;;17.52;100.00;101250.09;4994703;28;20300;-75
2021/09/04 07:23:04;;;;;;;5.88;2.10;;;;;;;17.67;100.00;101260.81;5001039;28;20178;-75
2021/09/04 07:25:36;;;;;;;2.90;1.80;;;;;;;17.67;100.00;101243.50;5018171;28;20217;-73
2021/09/04 07:28:03;;;;;;;5.65;2.47;;;;;;;17.92;100.00;101252.06;5009583;28;20216;-75
2021/09/04 07:30:28;;;;;;;4.75;2.33;;;;;;;17.81;100.00;101245.16;5032642;28;20684;-75
2021/09/04 07:32:57;;;;;;;6.80;2.20;;;;;;;17.66;100.00;101250.94;5002737;28;20190;-75
2021/09/04 07:35:32;;;;;;;4.40;2.08;;;;;;;17.86;100.00;101247.81;5012069;28;20192;-73
2021/09/04 07:37:58;;;;;;;4.43;2.10;;;;;;;17.93;100.00;101248.19;5029198;28;20595;-79
2021/09/04 07:40:25;;;;;;;3.58;1.80;;;;;;;17.82;100.00;101246.78;5027349;28;20367;-75
2021/09/04 07:42:51;;;;;;;4.85;1.95;;;;;;;18.19;100.00;101247.41;5021104;28;20185;-75
2021/09/04 07:45:21;;;;;;;4.30;2.28;;;;;;;18.59;100.00;101247.31;5012568;28;20562;-74
2021/09/04 07:47:51;;;;;;;4.57;2.00;;;;;;;18.11;100.00;101250.84;4993649;28;20191;-76
2021/09/04 07:50:17;;;;;;;4.88;2.40;;;;;;;18.31;100.00;101250.44;5020760;28;20278;-75
2021/09/04 07:52:44;;;;;;;3.85;1.90;;;;;;;17.93;100.00;101249.03;5033502;28;20598;-75
2021/09/04 07:55:13;;;;;;;4.10;2.42;;;;;;;18.40;100.00;101259.59;5008818;28;20196;-74
2021/09/04 07:57:39;;;;;;;6.35;2.08;;;;;;;18.47;98.16;101254.47;4992948;28;20185;-74
2021/09/04 08:00:05;;;;;;;5.65;2.22;;;;;;;18.40;98.04;101249.38;5012320;28;20227;-74
2021/09/04 08:02:40;;;;;;;5.90;2.20;;;;;;;18.23;99.15;101254.72;5011658;28;20208;-75
2021/09/04 08:05:06;;;;;;;5.88;2.30;;;;;;;18.44;100.00;101255.91;4987428;28;20203;-74
2021/09/04 08:07:32;;;;;;;5.20;2.55;;;;;;;18.64;96.44;101261.78;4984202;28;20279;-74
2021/09/04 08:10:00;;;;;;;4.30;2.30;;;;;;;18.31;95.40;101259.50;5004288;28;20216;-74
2021/09/04 08:12:28;;;;;;;7.38;2.50;;;;;;;18.33;96.86;101259.19;5017608;28;20220;-74
2021/09/04 08:14:54;;;;;;;4.75;2.58;;;;;;;18.54;98.32;101263.94;4998650;28;20223;-73
2021/09/04 08:17:27;;;;;;;5.55;2.75;;;;;;;18.47;97.68;101274.56;5005087;28;20833;-74
2021/09/04 08:19:52;;;;;;;4.47;2.80;;;;;;;18.85;90.08;101270.38;5004112;28;20211;-72
2021/09/04 08:22:23;;;;;;;5.65;2.70;;;;;;;18.82;91.26;101268.25;5003354;28;20224;-74
2021/09/04 08:24:50;;;;;;;7.60;3.58;;;;;;;18.60;89.00;101276.47;5028872;28;20193;-76
2021/09/04 08:27:16;;;;;;;7.25;3.50;;;;;;;18.45;87.79;101278.75;5014109;28;20289;-74
2021/09/04 08:29:44;;;;;;;6.43;3.78;;;;;;;18.48;88.02;101267.94;4996282;28;20278;-74
2021/09/04 08:32:18;;;;;;;8.23;3.97;;;;;;;18.57;86.46;101275.16;5014094;28;20212;-73
2021/09/04 08:34:45;;;;;;;6.95;3.60;;;;;;;18.58;90.61;101270.44;5012760;28;20185;-75
2021/09/04 08:37:11;;;;;;;4.97;3.40;;;;;;;18.34;91.01;101269.09;4996667;28;20228;-73
2021/09/04 08:39:37;;;;;;;5.57;3.40;;;;;;;18.63;92.14;101264.84;5020997;28;20213;-74
2021/09/04 08:42:05;;;;;;;6.30;3.95;;;;;;;18.34;88.46;101278.13;5042949;28;20228;-74
2021/09/04 08:44:30;;;;;;;7.60;3.80;;;;;;;18.60;88.38;101273.72;5016979;28;20198;-73
2021/09/04 08:47:00;;;;;;;7.03;3.92;;;;;;;18.35;88.42;101274.28;5039366;28;20304;-77
2021/09/04 08:49:27;;;;;;;7.70;4.25;;;;;;;18.40;88.75;101276.91;4996339;28;20220;-74
2021/09/04 08:51:53;;;;;;;7.82;3.97;;;;;;;18.27;90.68;101283.25;4995084;28;20220;-74
2021/09/04 08:54:21;;;;;;;11.50;4.70;;;;;;;18.36;90.18;101286.09;4979398;28;20261;-73
2021/09/04 08:56:49;;;;;;;7.60;4.00;;;;;;;18.94;87.32;101289.41;4993034;28;20231;-73
2021/09/04 08:59:14;;;;;;;9.20;4.40;;;;;;;18.91;87.20;101290.03;4978166;28;20210;-74
2021/09/04 09:01:44;;;;;;;8.10;4.45;;;;;;;18.55;89.85;101284.81;4980870;28;20216;-72
2021/09/04 09:04:17;;;;;;;6.18;4.30;;;;;;;18.61;88.58;101287.16;5000260;28;20213;-74
2021/09/04 09:06:48;;;;;;;7.20;4.50;;;;;;;18.82;85.39;101284.75;5002595;28;20219;-73
2021/09/04 09:09:27;;;;;;;7.97;4.70;;;;;;;18.94;86.91;101294.09;5029996;28;20216;-72
2021/09/04 09:11:53;;;;;;;10.38;5.57;;;;;;;18.56;88.13;101298.28;4999831;28;20313;-73
2021/09/04 09:14:22;;;;;;;7.25;4.45;;;;;;;18.72;82.46;101307.03;4998538;28;20186;-74
2021/09/04 09:16:56;;;;;;;6.88;4.28;;;;;;;18.90;80.50;101295.88;5016439;28;20238;-74
2021/09/04 09:19:28;;;;;;;7.18;4.88;;;;;;;18.95;81.51;101299.31;4965696;28;20197;-73
2021/09/04 09:21:56;;;;;;;10.82;5.53;;;;;;;18.70;83.42;101299.06;4985483;28;20780;-77
2021/09/04 09:24:23;;;;;;;8.73;5.70;;;;;;;19.12;84.26;101302.22;5003152;28;20188;-73
2021/09/04 09:26:55;;;;;;;9.40;5.10;;;;;;;18.93;85.02;101296.03;4974018;28;20220;-75
2021/09/04 09:29:33;;;;;;;10.65;5.40;;;;;;;18.88;84.93;101294.53;5020462;28;20209;-76
2021/09/04 09:32:06;;;;;;;10.10;5.07;;;;;;;18.82;85.53;101304.03;4985919;28;20266;-77
2021/09/04 09:34:42;;;;;;;8.75;5.18;;;;;;;18.47;85.76;101309.53;5001469;28;20653;-75
2021/09/04 09:37:13;;;;;;;7.93;5.10;;;;;;;18.90;86.20;101298.63;4997094;28;20213;-75
2021/09/04 09:39:40;;;;;;;9.93;4.82;;;;;;;18.79;85.66;101296.38;5004271;28;20278;-76
2021/09/04 09:42:10;;;;;;;8.95;5.35;;;;;;;19.04;86.07;101302.16;5028053;28;20224;-76
2021/09/04 09:44:41;;;;;;;9.07;5.03;;;;;;;18.50;84.83;101298.72;5001972;28;20281;-77
2021/09/04 09:47:10;;;;;;;7.18;5.13;;;;;;;18.34;88.66;101294.66;5007426;28;20579;-76
2021/09/04 09:49:47;;;;;;;10.23;5.50;;;;;;;18.88;85.98;101296.16;5001317;28;20212;-75
2021/09/04 09:52:16;;;;;;;8.00;5.38;;;;;;;18.84;85.20;101304.53;5020429;28;20725;-76
2021/09/04 09:54:42;;;;;;;7.70;5.32;;;;;;;19.27;83.69;101304.59;4983708;28;20542;-76
2021/09/04 09:57:11;;;;;;;8.88;5.60;;;;;;;19.51;75.03;101289.38;4999717;28;20269;-76
2021/09/04 09:59:38;;;;;;;9.38;5.70;;;;;;;19.36;76.02;101302.72;5018180;28;20223;-77
2021/09/04 10:02:13;;;;;;;8.18;5.03;;;;;;;19.70;76.42;101298.22;5016732;28;20232;-75
2021/09/04 10:04:39;;;;;;;9.15;5.95;;;;;;;19.94;74.12;101293.19;4966339;28;20189;-75
2021/09/04 10:07:13;;;;;;;8.20;6.05;;;;;;;19.27;76.80;101307.38;4982514;28;20225;-76
2021/09/04 10:09:41;;;;;;;13.55;6.68;;;;;;;19.55;75.72;101301.38;4988074;28;20213;-77
2021/09/04 10:12:14;;;;;;;7.70;5.85;;;;;;;19.70;75.86;101303.72;5009156;28;20267;-79
2021/09/04 10:14:41;;;;;;;9.30;5.50;;;;;;;19.55;76.74;101300.56;5025678;28;20632;-76
2021/09/04 10:17:12;;;;;;;7.35;5.63;;;;;;;19.51;78.80;101297.63;5017920;28;20236;-76
2021/09/04 10:19:41;;;;;;;8.30;5.80;;;;;;;19.64;76.26;101295.94;5033427;28;20201;-75
2021/09/04 10:22:09;;;;;;;10.60;5.95;;;;;;;20.15;70.99;101292.28;4966505;28;20240;-75
2021/09/04 10:24:53;;;;;;;10.93;6.30;;;;;;;20.37;73.54;101292.19;5013429;28;20185;-75
2021/09/04 10:27:42;;;;;;;8.55;5.50;;;;;;;20.04;74.27;101293.72;5000887;28;20350;-75
2021/09/04 10:30:30;;;;;;;8.70;5.95;;;;;;;19.97;71.34;101276.81;4996356;28;20713;-73
2021/09/04 10:33:11;;;;;;;9.10;5.75;;;;;;;20.07;72.66;101276.50;4984463;28;20665;-75
2021/09/04 10:35:43;;;;;;;10.82;5.93;;;;;;;20.33;71.72;101280.16;5000286;28;20220;-75
2021/09/04 10:38:20;;;;;;;7.28;5.60;;;;;;;19.96;73.63;101272.41;5015841;28;20299;-79
2021/09/04 10:41:08;;;;;;;9.63;5.78;;;;;;;20.45;72.66;101270.91;5022362;28;20299;-75
2021/09/04 10:43:36;;;;;;;11.02;6.20;;;;;;;19.91;73.37;101275.31;4998877;28;20189;-79
2021/09/04 10:46:01;;;;;;;8.30;5.38;;;;;;;19.70;74.84;101281.66;5004742;28;20216;-75
2021/09/04 10:48:39;;;;;;;10.80;6.07;;;;;;;19.88;77.10;101278.72;5000471;28;20232;-75
2021/09/04 10:51:11;;;;;;;10.15;6.15;;;;;;;20.19;74.40;101276.72;5001288;28;20258;-75
2021/09/04 10:53:44;;;;;;;8.40;5.60;;;;;;;20.23;74.17;101274.94;5000843;28;20184;-75
2021/09/04 10:56:33;;;;;;;10.20;6.20;;;;;;;20.20;72.71;101278.34;5017530;28;20216;-74
2021/09/04 10:59:03;;;;;;;11.27;5.80;;;;;;;20.06;71.82;101272.94;5016126;28;20918;-74
2021/09/04 11:01:40;;;;;;;11.40;6.00;;;;;;;19.82;73.49;101282.75;5016378;28;20232;-80
2021/09/04 11:04:10;;;;;;;10.48;5.70;;;;;;;19.20;75.48;101281.38;5032117;28;20827;-75
2021/09/04 11:06:36;;;;;;;11.18;6.03;;;;;;;19.39;73.93;101291.06;5016911;28;20316;-74
2021/09/04 11:09:04;;;;;;;10.73;5.55;;;;;;;19.48;74.21;101276.19;4984591;28;20259;-76
2021/09/04 11:11:36;;;;;;;8.63;5.65;;;;;;;20.25;71.48;101283.72;5013289;28;20229;-75
2021/09/04 11:14:20;;;;;;;10.20;5.72;;;;;;;20.56;67.06;101283.28;5025749;28;20274;-75
2021/09/04 11:16:55;;;;;;;9.55;5.60;;;;;;;20.70;65.93;101278.47;5018390;28;20224;-76
2021/09/04 11:19:31;;;;;;;8.20;5.72;;;;;;;20.66;64.14;101271.16;5025952;28;20224;-76
2021/09/04 11:22:06;;;;;;;11.65;5.30;;;;;;;20.23;65.32;101277.69;4998044;28;20280;-77
2021/09/04 11:24:39;;;;;;;8.77;5.35;;;;;;;19.95;71.85;101273.56;4999387;28;20212;-77